San Buenaventura, California
Current Conditions -  °F | °C
As of 2:11 AM on Saturday 20 Dec 2014 (Local Time) from KOXR Reporting Station
Scattered Clouds Scattered Clouds  
Wind Chill: 52°   Ceiling: Unl
Heat Index: 52°   Visibility: 10mi
Dew Point: 46°   Wind: 9mph
Humidity: 80%   Direction: 40°NE
Pressure: 30.16"   Gusts: NA
Location:  34.2816°N, 119.223°W
Report Text: KOXR 201011Z AUTO 04008KT 10SM SCT022 11/08 A3016 RMK AO2 T01110078
Loading
Personal Weather Stations






























Interactive Weather Map New forecast layout! Learn more

10-Day Weather Forecast

Advertisements
Track Severe Weather on mobile